Flight Track Log - Related Links

Times and Time Zones

All times are in EDT time to prevent confusion due to time zone crossing. See the N242SR flight status page for this flight to view local times or setup timezone preferences in your user account.


Time Position Orientation Groundspeed Altitude Reporting Facility
EDT Latitude Longitude Course Direction KTS MPH feet Rate Location/Type
Sat 11:35:29 AM 42.4667 -71.3000 270° West 102 117 1,000  Level KA90
Sat 11:36:05 AM 42.4667 -71.3333 270° West 118 136 1,600 1,125 Climbing KA90
Sat 11:37:05 AM 42.4333 -71.3667 216° Southwest 121 139 2,800 1,158 Climbing KA90
Sat 11:37:59 AM 42.4167 -71.3833 216° Southwest 120 138 3,800 737 Climbing KA90
Sat 11:38:59 AM 42.3833 -71.4167 216° Southwest 151 174 4,200 255 Climbing KA90
Sat 11:39:33 AM 42.3628 -71.4511 231° Southwest 156 180 4,200  Level Boston Center
Sat 11:40:34 AM 42.3297 -71.4964 225° Southwest 165 190 4,200 -29 Level Boston Center
Sat 11:42:59 AM 42.2333 -71.5667 208° Southwest 167 192 4,100 -75 Descending KA90
Sat 11:43:15 AM 42.2242 -71.5794 226° Southwest 163 188 4,000 -88 Descending Boston Center
Sat 11:44:07 AM 42.1847 -71.5994 201° Southwest 176 203 4,000  Level Boston Center
Sat 11:44:22 AM 42.1742 -71.5997 181° South 179 206 4,000  Level Boston Center
Sat 11:45:17 AM 42.1264 -71.6117 191° South 180 207 4,000  Level Boston Center
Sat 11:46:17 AM 42.0806 -71.6233 191° South 177 204 4,000 50 Level Boston Center
Sat 11:47:18 AM 42.0328 -71.6350 190° South 173 199 4,100 49 Climbing Boston Center
Sat 11:48:19 AM 41.9828 -71.6497 192° South 174 200 4,100  Level Boston Center
Sat 11:49:19 AM 41.9372 -71.6614 191° South 175 201 4,100  Level Boston Center
Sat 11:50:20 AM 41.8872 -71.6706 188° South 175 201 4,100  Level Boston Center
Sat 11:51:21 AM 41.8394 -71.6850 193° South 174 200 4,100  Level Boston Center
Sat 11:52:09 AM 41.8019 -71.6911 187° South 172 198 4,100  Level Boston Center
Sat 11:53:10 AM 41.7539 -71.7056 193° South 168 193 4,100  Level Boston Center
Sat 11:54:11 AM 41.7083 -71.7172 191° South 167 192 4,100  Level Boston Center
Sat 11:55:12 AM 41.6625 -71.7258 188° South 164 189 4,100 -149 Level Boston Center
Sat 11:56:12 AM 41.6189 -71.7375 191° South 169 194 3,800 -397 Descending Boston Center
Sat 11:57:13 AM 41.5689 -71.7519 192° South 176 203 3,300 -492 Descending Boston Center
Sat 11:58:14 AM 41.5169 -71.7664 192° South 186 214 2,800 -492 Descending Boston Center
Sat 11:59:15 AM 41.4689 -71.7781 190° South 180 207 2,300 -397 Descending Boston Center
Sat 12:00:15 PM 41.4189 -71.7786 180° South 167 192 2,000 -397 Descending Boston Center
Sat 12:01:16 PM 41.3814 -71.7622 162° South 142 163 1,500 -639 Descending Boston Center
Sat 12:02:17 PM 41.3628 -71.7819 218° Southwest 104 120 700 -393 Descending Boston Center
Sat 12:03:18 PM 41.3606 -71.7958 258° West 104 120 700  Level Boston Center

Login

Don't have an account? Register now (free) for customized features, flight alerts, and more!